Time;durP1;ratioP1;P1;durP2;ratioP2;P2;SDS_P1;SDS_P2;PMS_P1;PMS_P2;Temp;Humidity;BMP_temperature;BMP_pressure;BME280_temperature;BME280_humidity;BME280_pressure;Samples;Min_cycle;Max_cycle;Signal;HPM_P1;HPM_P2
2021/12/25 00:01:06;;;;;;;15.83;11.30;;;6.50;99.90;;;;;;5096319;28;20749;-47
2021/12/25 00:03:33;;;;;;;15.63;11.40;;;6.50;99.90;;;;;;5096016;28;20199;-46
2021/12/25 00:05:58;;;;;;;15.03;11.20;;;6.50;99.90;;;;;;5095957;28;20189;-47
2021/12/25 00:08:27;;;;;;;15.63;11.90;;;6.50;99.90;;;;;;5095918;28;20185;-48
2021/12/25 00:10:54;;;;;;;14.70;11.00;;;6.40;99.90;;;;;;5096235;28;20193;-47
2021/12/25 00:13:20;;;;;;;15.20;11.03;;;6.50;99.90;;;;;;5095781;28;20244;-48
2021/12/25 00:15:46;;;;;;;17.47;11.33;;;6.40;99.90;;;;;;5095733;28;20224;-47
2021/12/25 00:18:12;;;;;;;14.73;11.63;;;6.40;99.90;;;;;;5096108;28;20178;-48
2021/12/25 00:20:38;;;;;;;14.87;10.63;;;6.40;99.90;;;;;;5095924;28;20191;-47
2021/12/25 00:23:06;;;;;;;14.97;11.53;;;6.40;99.90;;;;;;5095654;28;20209;-47
2021/12/25 00:25:36;;;;;;;15.77;11.60;;;6.40;99.90;;;;;;5095708;28;20645;-47
2021/12/25 00:28:18;;;;;;;17.83;12.30;;;6.40;99.90;;;;;;5095551;28;20621;-47
2021/12/25 00:30:59;;;;;;;13.70;10.87;;;6.30;99.90;;;;;;5077682;28;20551;-48
2021/12/25 00:35:57;;;;;;;16.30;11.93;;;6.30;99.90;;;;;;5095460;28;20174;-47
2021/12/25 00:38:23;;;;;;;17.20;11.27;;;6.30;99.90;;;;;;5095413;28;20672;-46
2021/12/25 00:40:49;;;;;;;16.37;11.80;;;6.30;99.90;;;;;;5095411;28;20609;-46
2021/12/25 00:43:14;;;;;;;18.10;11.97;;;6.30;99.90;;;;;;5095238;28;20209;-48
2021/12/25 00:45:40;;;;;;;17.30;12.50;;;6.30;99.90;;;;;;5095890;28;20260;-47
2021/12/25 00:48:05;;;;;;;18.00;12.23;;;6.30;99.90;;;;;;5094156;28;20182;-47
2021/12/25 00:50:32;;;;;;;16.03;11.10;;;6.20;99.90;;;;;;5094984;28;20185;-47
2021/12/25 00:52:57;;;;;;;15.37;11.20;;;6.20;99.90;;;;;;5076964;28;20707;-46
2021/12/25 00:55:23;;;;;;;16.93;12.20;;;6.20;99.90;;;;;;5095184;28;20210;-47
2021/12/25 00:57:48;;;;;;;15.70;12.40;;;6.20;99.90;;;;;;5095234;28;20660;-47
2021/12/25 01:00:15;;;;;;;14.90;11.03;;;6.20;99.90;;;;;;5096150;28;20199;-46
2021/12/25 01:02:43;;;;;;;15.03;11.23;;;6.20;99.90;;;;;;5096983;28;20204;-47
2021/12/25 01:05:11;;;;;;;16.10;11.37;;;6.10;99.90;;;;;;5099266;28;20183;-44
2021/12/25 01:07:37;;;;;;;15.43;10.80;;;6.20;99.90;;;;;;5095312;28;20176;-42
2021/12/25 01:10:07;;;;;;;15.70;10.67;;;6.10;99.90;;;;;;5095112;28;20211;-42
2021/12/25 01:12:46;;;;;;;14.03;11.20;;;6.10;99.90;;;;;;5095095;28;20208;-42
2021/12/25 01:15:12;;;;;;;13.97;10.67;;;6.10;99.90;;;;;;5095238;28;20288;-43
2021/12/25 01:30:49;;;;;;;15.10;11.33;;;6.00;99.90;;;;;;5094657;28;20292;-49
2021/12/25 01:33:50;;;;;;;15.73;11.43;;;5.90;99.90;;;;;;5094139;28;20706;-49
2021/12/25 01:49:32;;;;;;;14.57;10.47;;;5.80;99.90;;;;;;5094403;28;20259;-48
2021/12/25 01:51:58;;;;;;;14.00;10.40;;;5.80;99.90;;;;;;5093827;28;20231;-48
2021/12/25 01:54:24;;;;;;;13.80;10.23;;;5.80;99.90;;;;;;5094041;28;20191;-49
2021/12/25 01:56:49;;;;;;;14.30;9.00;;;5.80;99.90;;;;;;5093819;28;20225;-47
2021/12/25 01:59:16;;;;;;;15.47;10.97;;;5.70;99.90;;;;;;5093422;28;20256;-47
2021/12/25 02:01:42;;;;;;;13.50;10.30;;;5.80;99.90;;;;;;5094553;28;20586;-48
2021/12/25 02:04:08;;;;;;;13.77;9.80;;;5.70;99.90;;;;;;5093729;28;20651;-47
2021/12/25 02:06:34;;;;;;;12.27;9.50;;;5.70;99.90;;;;;;5093769;28;20215;-48
2021/12/25 02:09:00;;;;;;;10.07;7.80;;;5.70;99.90;;;;;;5093936;28;20181;-47
2021/12/25 02:11:25;;;;;;;14.67;9.10;;;5.70;99.90;;;;;;5093538;28;20191;-49
2021/12/25 02:13:51;;;;;;;12.40;9.43;;;5.60;99.90;;;;;;5093518;28;20221;-47
2021/12/25 02:16:21;;;;;;;15.53;9.83;;;5.60;99.90;;;;;;5094105;28;20249;-46
2021/12/25 02:19:01;;;;;;;11.57;9.67;;;5.50;99.90;;;;;;5093706;28;20210;-46
2021/12/25 02:21:34;;;;;;;13.60;9.23;;;5.50;99.90;;;;;;5093714;28;20200;-48
2021/12/25 02:24:00;;;;;;;10.63;8.53;;;5.50;99.90;;;;;;5093429;28;20165;-49
2021/12/25 02:26:27;;;;;;;10.87;8.67;;;5.50;99.90;;;;;;5093663;28;20325;-48
2021/12/25 02:28:53;;;;;;;9.80;7.67;;;5.40;99.90;;;;;;5092112;28;20673;-46
2021/12/25 02:31:19;;;;;;;8.37;7.47;;;5.40;99.90;;;;;;5093211;28;20175;-47
2021/12/25 02:33:45;;;;;;;10.70;7.30;;;5.40;99.90;;;;;;5093257;28;20541;-48
2021/12/25 02:36:13;;;;;;;11.47;7.30;;;5.40;99.90;;;;;;5093317;28;20182;-47
2021/12/25 02:38:39;;;;;;;9.73;7.37;;;5.30;99.90;;;;;;5092364;28;20260;-46
2021/12/25 02:41:06;;;;;;;8.00;6.50;;;5.30;99.90;;;;;;5093582;28;20219;-47
2021/12/25 02:43:32;;;;;;;8.93;6.57;;;5.30;99.90;;;;;;5093211;28;20211;-48
2021/12/25 02:46:02;;;;;;;8.40;6.80;;;5.20;99.90;;;;;;5093269;28;20254;-48
2021/12/25 02:48:28;;;;;;;8.60;6.77;;;5.20;99.90;;;;;;5093520;28;20160;-48
2021/12/25 02:50:54;;;;;;;10.47;6.23;;;5.20;99.90;;;;;;5093819;28;20175;-47
2021/12/25 02:53:20;;;;;;;10.53;7.30;;;5.20;99.90;;;;;;5074914;28;20279;-47
2021/12/25 02:55:46;;;;;;;11.80;8.27;;;5.20;99.90;;;;;;5093326;28;20214;-48
2021/12/25 02:58:13;;;;;;;10.33;6.53;;;5.20;99.90;;;;;;5093040;28;20176;-47
2021/12/25 03:00:43;;;;;;;9.27;6.97;;;5.10;99.90;;;;;;5093069;28;20231;-46
2021/12/25 03:03:09;;;;;;;8.93;7.07;;;5.10;99.90;;;;;;5093003;28;20209;-48
2021/12/25 03:05:35;;;;;;;8.60;6.70;;;5.10;99.90;;;;;;5092985;28;20206;-45
2021/12/25 03:08:02;;;;;;;9.73;6.93;;;5.10;99.90;;;;;;5092997;28;20195;-45
2021/12/25 03:10:30;;;;;;;9.43;7.97;;;5.10;99.90;;;;;;5093211;28;20183;-47
2021/12/25 03:13:18;;;;;;;9.27;6.80;;;5.10;99.90;;;;;;5077409;28;20261;-46
2021/12/25 03:15:46;;;;;;;9.10;7.60;;;5.10;99.90;;;;;;5078793;28;20241;-48
2021/12/25 03:18:16;;;;;;;9.80;7.53;;;5.00;99.90;;;;;;5096918;28;20248;-47
2021/12/25 03:20:46;;;;;;;9.90;8.00;;;5.00;99.90;;;;;;5078639;28;20197;-47
2021/12/25 03:23:14;;;;;;;9.80;8.07;;;5.00;99.90;;;;;;5097082;28;20206;-46
2021/12/25 03:25:41;;;;;;;9.20;7.53;;;4.90;99.90;;;;;;5096668;28;20187;-48
2021/12/25 03:28:06;;;;;;;9.27;7.70;;;4.90;99.90;;;;;;5096785;28;20198;-47
2021/12/25 03:30:36;;;;;;;8.50;6.83;;;4.90;99.90;;;;;;5096748;28;20230;-48
2021/12/25 03:33:06;;;;;;;14.23;7.00;;;4.90;99.90;;;;;;5096475;28;20218;-47
2021/12/25 03:35:34;;;;;;;10.30;8.23;;;4.90;99.90;;;;;;5096971;28;20536;-48
2021/12/25 03:38:07;;;;;;;9.37;7.40;;;4.80;99.90;;;;;;5096582;28;20171;-47
2021/12/25 03:40:33;;;;;;;8.80;7.17;;;4.80;99.90;;;;;;5096891;28;20599;-47
2021/12/25 03:42:59;;;;;;;10.73;7.47;;;4.70;99.90;;;;;;5096433;28;20290;-48
2021/12/25 03:45:28;;;;;;;8.87;7.10;;;4.80;99.90;;;;;;5096479;28;20179;-46
2021/12/25 03:48:04;;;;;;;9.67;8.00;;;4.70;99.90;;;;;;5096472;28;20658;-47
2021/12/25 03:58:42;;;;;;;12.67;8.77;;;4.60;99.90;;;;;;5096458;28;20254;-47
2021/12/25 04:04:03;;;;;;;10.53;8.37;;;4.50;99.90;;;;;;5096397;28;20156;-46
2021/12/25 04:06:29;;;;;;;12.23;8.80;;;4.50;99.90;;;;;;5077899;28;20171;-46
2021/12/25 04:08:56;;;;;;;12.13;9.13;;;4.50;99.90;;;;;;5096271;28;20236;-48
2021/12/25 04:11:28;;;;;;;12.47;9.03;;;4.50;99.90;;;;;;5096160;28;20187;-44
2021/12/25 04:13:55;;;;;;;12.63;9.37;;;4.40;99.90;;;;;;5096391;28;20273;-47
2021/12/25 04:16:22;;;;;;;12.47;10.03;;;4.40;99.90;;;;;;5095833;28;20179;-47
2021/12/25 04:18:47;;;;;;;12.93;10.30;;;4.40;99.90;;;;;;5095816;28;20167;-48
2021/12/25 04:21:13;;;;;;;14.40;10.90;;;4.40;99.90;;;;;;5095908;28;20610;-45
2021/12/25 04:23:41;;;;;;;13.23;9.77;;;4.30;99.90;;;;;;5095437;28;20179;-47
2021/12/25 04:26:07;;;;;;;11.67;9.20;;;4.30;99.90;;;;;;5094456;28;20259;-47
2021/12/25 04:31:29;;;;;;;11.70;8.97;;;4.20;99.90;;;;;;5095907;28;20173;-49
2021/12/25 05:01:42;;;;;;;10.97;9.40;;;3.90;99.90;;;;;;5095512;28;20159;-46
2021/12/25 05:04:11;;;;;;;12.17;9.00;;;3.70;99.90;;;;;;5095301;28;20181;-47
2021/12/25 05:06:37;;;;;;;11.03;9.30;;;3.70;99.90;;;;;;5095297;28;20250;-45
2021/12/25 05:09:02;;;;;;;11.67;9.40;;;3.70;99.90;;;;;;5076731;28;20266;-45
2021/12/25 05:11:28;;;;;;;11.90;9.27;;;3.70;99.90;;;;;;5095033;28;20222;-47
2021/12/25 05:13:54;;;;;;;11.60;9.07;;;3.60;99.90;;;;;;5095020;28;20205;-48
2021/12/25 05:16:20;;;;;;;11.67;9.30;;;3.50;99.90;;;;;;5094718;28;20185;-47
2021/12/25 05:18:46;;;;;;;11.70;8.10;;;3.50;99.90;;;;;;5094549;28;20676;-48
2021/12/25 05:21:14;;;;;;;11.23;9.27;;;3.50;99.90;;;;;;5076509;28;20178;-48
2021/12/25 05:23:41;;;;;;;12.27;10.70;;;3.40;99.90;;;;;;5094563;28;20175;-45
2021/12/25 05:26:07;;;;;;;11.03;9.13;;;3.40;99.90;;;;;;5094769;28;20191;-47
2021/12/25 05:28:41;;;;;;;12.83;8.63;;;3.40;99.90;;;;;;5094372;28;20527;-45
2021/12/25 05:31:13;;;;;;;12.17;9.37;;;3.30;99.90;;;;;;5094730;28;20163;-46
2021/12/25 05:33:39;;;;;;;11.20;8.47;;;3.30;99.90;;;;;;5094537;28;20191;-46
2021/12/25 05:36:05;;;;;;;10.77;8.70;;;3.30;99.90;;;;;;5093706;28;20172;-45
2021/12/25 05:38:33;;;;;;;10.87;9.23;;;3.30;99.90;;;;;;5094527;28;20269;-49
2021/12/25 05:40:59;;;;;;;11.53;9.67;;;3.30;99.90;;;;;;5076100;28;20262;-48
2021/12/25 05:43:25;;;;;;;11.50;8.57;;;3.20;99.90;;;;;;5094126;28;20607;-47
2021/12/25 05:45:50;;;;;;;10.57;8.83;;;3.20;99.90;;;;;;5094694;28;20171;-49
2021/12/25 05:48:16;;;;;;;9.73;8.23;;;3.20;99.90;;;;;;5094343;28;20562;-46
2021/12/25 05:50:42;;;;;;;12.03;8.57;;;3.10;99.90;;;;;;5094263;28;20175;-47
2021/12/25 05:53:07;;;;;;;10.53;9.40;;;3.20;99.90;;;;;;5075718;28;20694;-46
2021/12/25 05:55:33;;;;;;;13.67;9.50;;;3.10;99.90;;;;;;5094305;28;20233;-45
2021/12/25 05:58:02;;;;;;;10.27;8.77;;;3.10;99.90;;;;;;5094224;28;20250;-46
2021/12/25 06:00:28;;;;;;;10.67;8.80;;;3.00;99.90;;;;;;5093978;28;20171;-46
2021/12/25 06:02:53;;;;;;;8.57;7.43;;;3.00;99.90;;;;;;5075681;28;20277;-47
2021/12/25 06:05:20;;;;;;;13.47;9.83;;;3.00;99.90;;;;;;5093851;28;20254;-46
2021/12/25 06:07:46;;;;;;;10.97;8.73;;;3.00;99.90;;;;;;5093776;28;20232;-47
2021/12/25 06:10:12;;;;;;;9.30;8.20;;;2.90;99.90;;;;;;5094052;28;20170;-47
2021/12/25 06:12:40;;;;;;;10.47;8.30;;;2.90;99.90;;;;;;5093705;28;20602;-48
2021/12/25 06:15:07;;;;;;;12.37;9.23;;;2.90;99.90;;;;;;5093775;28;20240;-49
2021/12/25 06:17:33;;;;;;;11.43;9.50;;;2.90;99.90;;;;;;5093579;28;20191;-47
2021/12/25 06:19:59;;;;;;;9.23;7.93;;;2.90;99.90;;;;;;5093649;28;20225;-47
2021/12/25 06:22:24;;;;;;;10.47;8.90;;;2.90;99.90;;;;;;5093564;28;20244;-45
2021/12/25 06:24:50;;;;;;;10.90;8.70;;;2.80;99.90;;;;;;5093782;28;20182;-46
2021/12/25 06:27:17;;;;;;;8.57;7.23;;;2.80;99.90;;;;;;5076031;28;20286;-46
2021/12/25 06:29:43;;;;;;;10.53;8.63;;;2.80;99.90;;;;;;5093519;28;20258;-47
2021/12/25 06:32:08;;;;;;;11.03;9.53;;;2.80;99.90;;;;;;5093628;28;20234;-47
2021/12/25 06:34:34;;;;;;;9.03;6.87;;;2.70;99.90;;;;;;5093425;28;20214;-47
2021/12/25 06:37:00;;;;;;;9.40;7.87;;;2.70;99.90;;;;;;5075212;28;20175;-48
2021/12/25 06:39:26;;;;;;;11.17;9.03;;;2.70;99.90;;;;;;5093343;28;20171;-48
2021/12/25 06:41:51;;;;;;;10.80;9.13;;;2.70;99.90;;;;;;5075942;28;20194;-47
2021/12/25 06:44:17;;;;;;;11.10;8.80;;;2.60;99.90;;;;;;5093309;28;20224;-48
2021/12/25 06:46:44;;;;;;;12.83;9.40;;;2.60;99.90;;;;;;5095958;28;20166;-47
2021/12/25 06:49:09;;;;;;;9.07;6.10;;;2.60;99.90;;;;;;5097770;28;20210;-48
2021/12/25 06:51:35;;;;;;;11.17;8.97;;;2.60;99.90;;;;;;5079287;28;20233;-47
2021/12/25 06:54:03;;;;;;;11.20;8.70;;;2.60;99.90;;;;;;5097656;28;20190;-48
2021/12/25 06:56:29;;;;;;;10.60;9.30;;;2.60;99.90;;;;;;5079229;28;20202;-49
2021/12/25 06:58:54;;;;;;;9.77;8.77;;;2.50;99.90;;;;;;5097491;28;20615;-47
2021/12/25 07:01:20;;;;;;;9.53;8.23;;;2.50;99.90;;;;;;5097225;28;20177;-47
2021/12/25 07:03:45;;;;;;;10.20;8.57;;;2.50;99.90;;;;;;5097528;28;20182;-47
2021/12/25 07:06:11;;;;;;;8.80;7.27;;;2.40;99.90;;;;;;5097226;28;20253;-50
2021/12/25 07:08:37;;;;;;;8.93;7.63;;;2.40;99.90;;;;;;5097207;28;20207;-48
2021/12/25 07:11:02;;;;;;;10.20;8.50;;;2.30;99.90;;;;;;5097169;28;20650;-49
2021/12/25 07:13:28;;;;;;;10.03;8.13;;;2.40;99.90;;;;;;5096918;28;20195;-47
2021/12/25 07:15:54;;;;;;;8.93;6.97;;;2.30;99.90;;;;;;5097425;28;20509;-48
2021/12/25 07:18:19;;;;;;;8.60;7.10;;;2.30;99.90;;;;;;5097347;28;20199;-48
2021/12/25 07:20:48;;;;;;;8.87;7.17;;;2.30;99.90;;;;;;5096981;28;20181;-47
2021/12/25 07:23:15;;;;;;;8.30;7.20;;;2.30;99.90;;;;;;5097173;28;20214;-46
2021/12/25 07:25:41;;;;;;;7.23;6.07;;;2.20;99.90;;;;;;5096869;28;20513;-49
2021/12/25 07:28:07;;;;;;;10.00;7.10;;;2.20;99.90;;;;;;5095447;28;20210;-47
2021/12/25 07:30:33;;;;;;;9.73;8.73;;;2.10;99.90;;;;;;5096813;28;20178;-46
2021/12/25 07:32:59;;;;;;;7.63;6.67;;;2.20;99.90;;;;;;5078340;28;20213;-45
2021/12/25 07:35:25;;;;;;;7.73;6.33;;;2.20;99.90;;;;;;5096838;28;20174;-47
2021/12/25 07:37:51;;;;;;;8.53;6.83;;;2.10;99.90;;;;;;5096758;28;20698;-45
2021/12/25 07:40:17;;;;;;;7.93;6.70;;;2.10;99.90;;;;;;5095524;28;20203;-46
2021/12/25 07:42:43;;;;;;;8.97;7.23;;;2.10;99.90;;;;;;5078618;28;20289;-47
2021/12/25 07:45:10;;;;;;;8.73;7.47;;;2.10;99.90;;;;;;5096586;28;20229;-45
2021/12/25 07:47:40;;;;;;;9.17;8.03;;;2.10;99.90;;;;;;5092780;28;20236;-45
2021/12/25 07:50:07;;;;;;;9.67;8.20;;;2.10;99.90;;;;;;5096586;28;20642;-48
2021/12/25 07:52:33;;;;;;;8.47;7.30;;;2.00;99.90;;;;;;5096546;28;20222;-48
2021/12/25 07:54:58;;;;;;;8.33;7.30;;;2.00;99.90;;;;;;5097143;28;20202;-47
2021/12/25 07:57:24;;;;;;;8.87;7.87;;;2.00;99.90;;;;;;5077660;28;20167;-47
2021/12/25 07:59:50;;;;;;;9.33;8.00;;;1.90;99.90;;;;;;5096202;28;20584;-47
2021/12/25 08:02:16;;;;;;;8.63;7.73;;;2.00;99.90;;;;;;5096091;28;20191;-47
2021/12/25 08:04:42;;;;;;;7.87;7.03;;;1.90;99.90;;;;;;5096233;28;20179;-47
2021/12/25 08:07:07;;;;;;;10.03;7.80;;;1.90;99.90;;;;;;5096106;28;20174;-48
2021/12/25 08:09:33;;;;;;;10.03;7.93;;;1.80;99.90;;;;;;5096076;28;20292;-45
2021/12/25 08:12:00;;;;;;;10.43;8.07;;;1.90;99.90;;;;;;5096192;28;20203;-47
2021/12/25 08:14:27;;;;;;;8.63;7.70;;;1.80;99.90;;;;;;5095865;28;20306;-46
2021/12/25 08:16:54;;;;;;;9.93;8.87;;;1.80;99.90;;;;;;5095876;28;20225;-48
2021/12/25 08:19:21;;;;;;;7.47;6.70;;;1.80;99.90;;;;;;5095854;28;20627;-47
2021/12/25 08:21:47;;;;;;;8.93;8.03;;;1.80;99.90;;;;;;5095997;28;20621;-46
2021/12/25 08:24:13;;;;;;;8.73;7.13;;;1.70;99.90;;;;;;5095998;28;20175;-48
2021/12/25 08:26:39;;;;;;;12.90;7.90;;;1.70;99.90;;;;;;5095643;28;20175;-48
2021/12/25 08:29:04;;;;;;;9.40;8.50;;;1.70;99.90;;;;;;5095577;28;20183;-48
2021/12/25 08:31:30;;;;;;;9.83;7.77;;;1.70;99.90;;;;;;5095440;28;20262;-47
2021/12/25 08:33:55;;;;;;;11.30;8.67;;;1.80;99.90;;;;;;5095690;28;20277;-48
2021/12/25 08:36:21;;;;;;;9.17;8.27;;;1.70;99.90;;;;;;5092253;28;20206;-44
2021/12/25 08:38:47;;;;;;;9.20;8.23;;;1.80;99.90;;;;;;5095727;28;20175;-46
2021/12/25 08:41:12;;;;;;;10.13;8.73;;;1.70;99.90;;;;;;5095343;28;20642;-46
2021/12/25 08:43:46;;;;;;;9.30;8.27;;;1.70;99.90;;;;;;5095681;28;20610;-46
2021/12/25 08:46:17;;;;;;;10.23;9.13;;;1.80;99.90;;;;;;5095660;28;20167;-48
2021/12/25 08:48:43;;;;;;;9.60;7.37;;;1.80;99.90;;;;;;5095570;28;20646;-46
2021/12/25 08:51:09;;;;;;;9.63;7.97;;;1.70;99.90;;;;;;5095158;28;20198;-46
2021/12/25 08:53:35;;;;;;;10.17;8.53;;;1.80;99.90;;;;;;5095545;28;20195;-47
2021/12/25 08:56:01;;;;;;;8.50;7.60;;;1.80;99.90;;;;;;5095348;28;20179;-47
2021/12/25 08:58:31;;;;;;;8.83;7.63;;;1.80;99.90;;;;;;5095073;28;20255;-47
2021/12/25 09:01:02;;;;;;;10.70;7.90;;;1.80;99.90;;;;;;5095367;28;20239;-45
2021/12/25 09:03:29;;;;;;;9.93;7.73;;;1.70;99.90;;;;;;5094873;28;20692;-49
2021/12/25 09:05:56;;;;;;;8.17;6.50;;;1.70;99.90;;;;;;5095017;28;20623;-46
2021/12/25 09:08:23;;;;;;;9.57;8.57;;;1.70;99.90;;;;;;5094899;28;20178;-46
2021/12/25 09:10:49;;;;;;;9.23;7.67;;;1.80;99.90;;;;;;5093912;28;20249;-47
2021/12/25 09:13:15;;;;;;;9.13;8.23;;;1.70;99.90;;;;;;5094689;28;20232;-48
2021/12/25 09:15:40;;;;;;;11.17;8.63;;;1.80;99.90;;;;;;5094981;28;20192;-47
2021/12/25 09:18:06;;;;;;;9.83;8.57;;;1.80;99.90;;;;;;5076524;28;20182;-48
2021/12/25 09:20:32;;;;;;;8.80;7.20;;;1.80;99.90;;;;;;5094703;28;20275;-47
2021/12/25 09:22:57;;;;;;;10.63;8.70;;;1.80;99.90;;;;;;5094622;28;20194;-46
2021/12/25 09:25:25;;;;;;;10.73;9.00;;;1.80;99.90;;;;;;5094834;28;20190;-47
2021/12/25 09:27:50;;;;;;;10.87;7.97;;;1.80;99.90;;;;;;5094578;28;20197;-46
2021/12/25 09:30:17;;;;;;;9.37;7.97;;;1.70;99.90;;;;;;5059699;28;20717;-48
2021/12/25 09:32:42;;;;;;;10.23;8.57;;;1.80;99.90;;;;;;5094328;28;20209;-48
2021/12/25 09:35:09;;;;;;;10.20;8.67;;;1.80;99.90;;;;;;5094536;28;20183;-47
2021/12/25 09:37:35;;;;;;;10.17;9.07;;;1.80;99.90;;;;;;5094320;28;20175;-46
2021/12/25 09:40:03;;;;;;;10.53;8.60;;;1.70;99.90;;;;;;5094314;28;20193;-46
2021/12/25 09:42:28;;;;;;;9.57;8.27;;;1.80;99.90;;;;;;5094088;28;20198;-45
2021/12/25 09:44:55;;;;;;;10.03;7.13;;;1.80;99.90;;;;;;5094451;28;20174;-47
2021/12/25 09:47:22;;;;;;;10.37;8.23;;;1.80;99.90;;;;;;5094447;28;20171;-46
2021/12/25 09:49:48;;;;;;;9.97;8.57;;;1.80;99.90;;;;;;5094104;28;20280;-45
2021/12/25 09:54:56;;;;;;;9.73;8.70;;;1.80;99.90;;;;;;5052935;28;20232;-42
2021/12/25 09:57:22;;;;;;;10.00;8.13;;;1.80;99.90;;;;;;5053836;28;20172;-43
2021/12/25 09:59:48;;;;;;;10.27;8.37;;;1.80;99.90;;;;;;5054360;28;20186;-43
2021/12/25 10:02:15;;;;;;;9.00;8.10;;;1.80;99.90;;;;;;5062101;28;20258;-43
2021/12/25 10:04:41;;;;;;;9.93;8.13;;;1.90;99.90;;;;;;5073754;28;20180;-43
2021/12/25 10:07:29;;;;;;;10.60;9.13;;;1.90;99.90;;;;;;5073877;28;20179;-43
2021/12/25 10:10:10;;;;;;;10.30;8.67;;;1.90;99.90;;;;;;5073908;28;20203;-43
2021/12/25 10:12:43;;;;;;;7.83;6.70;;;1.90;99.90;;;;;;5073482;28;20236;-42
2021/12/25 10:15:14;;;;;;;9.97;8.97;;;1.90;99.90;;;;;;5074039;28;20209;-42
2021/12/25 10:17:59;;;;;;;8.70;7.80;;;1.90;99.90;;;;;;5075284;28;20164;-42
2021/12/25 10:20:31;;;;;;;9.20;7.50;;;1.90;99.90;;;;;;5075331;28;20194;-43
2021/12/25 10:23:11;;;;;;;11.57;10.33;;;2.00;99.90;;;;;;5094006;28;20603;-42
2021/12/25 10:25:48;;;;;;;10.23;8.47;;;1.90;99.90;;;;;;5075725;28;20182;-43
2021/12/25 10:28:17;;;;;;;10.87;9.33;;;2.00;99.90;;;;;;5075623;28;20169;-43
2021/12/25 10:30:54;;;;;;;11.30;9.43;;;2.00;99.90;;;;;;5094054;28;20177;-44
2021/12/25 10:33:40;;;;;;;10.43;8.83;;;2.00;99.90;;;;;;5093526;28;20254;-42
2021/12/25 10:36:34;;;;;;;11.07;9.23;;;2.00;99.90;;;;;;5093634;28;20155;-43
2021/12/25 10:39:04;;;;;;;13.97;9.93;;;2.00;99.90;;;;;;5075346;28;20254;-43
2021/12/25 10:41:35;;;;;;;11.10;8.50;;;2.00;99.90;;;;;;5093620;28;20170;-43
2021/12/25 10:44:23;;;;;;;10.30;8.57;;;2.00;99.90;;;;;;5075368;28;20236;-43
2021/12/25 10:46:57;;;;;;;10.53;8.73;;;2.00;99.90;;;;;;5109103;28;20167;-43
2021/12/25 10:49:26;;;;;;;11.07;9.50;;;1.90;99.90;;;;;;5093251;28;20528;-45
2021/12/25 10:51:52;;;;;;;10.07;8.50;;;1.90;99.90;;;;;;5075152;28;20210;-45
2021/12/25 10:54:19;;;;;;;9.90;7.53;;;2.00;99.90;;;;;;5075148;28;20203;-46
2021/12/25 10:56:47;;;;;;;12.63;8.90;;;1.90;99.90;;;;;;5075334;28;20170;-44
2021/12/25 10:59:16;;;;;;;11.23;8.90;;;1.90;99.90;;;;;;5075098;28;20247;-44
2021/12/25 11:01:45;;;;;;;9.80;7.97;;;1.90;99.90;;;;;;5075032;28;20193;-44
2021/12/25 11:04:35;;;;;;;10.00;8.57;;;1.90;99.90;;;;;;5093349;28;20179;-45
2021/12/25 11:07:15;;;;;;;12.17;10.37;;;1.80;99.90;;;;;;5093184;28;20201;-45
2021/12/25 11:10:04;;;;;;;11.80;9.83;;;1.90;99.90;;;;;;5093499;28;20170;-44
2021/12/25 11:12:31;;;;;;;12.13;10.53;;;1.90;99.90;;;;;;5074896;28;20213;-44
2021/12/25 11:15:22;;;;;;;13.00;9.70;;;1.90;99.90;;;;;;5093076;28;20205;-46
2021/12/25 11:17:54;;;;;;;12.30;9.70;;;1.90;99.90;;;;;;5093647;28;20166;-45
2021/12/25 11:20:55;;;;;;;13.50;9.27;;;2.00;99.90;;;;;;5093754;28;20155;-49
2021/12/25 11:26:58;;;;;;;12.10;7.77;;;2.00;99.90;;;;;;5093178;28;20663;-48
2021/12/25 11:29:52;;;;;;;13.13;10.47;;;2.10;99.90;;;;;;5092129;28;20525;-50
2021/12/25 11:33:05;;;;;;;11.80;9.47;;;2.10;99.90;;;;;;5091732;28;20206;-48
2021/12/25 11:35:46;;;;;;;10.13;8.87;;;2.10;99.90;;;;;;5078083;28;20197;-48
2021/12/25 11:38:20;;;;;;;10.47;9.07;;;2.10;99.90;;;;;;5097036;28;20169;-48
2021/12/25 11:41:12;;;;;;;11.07;9.00;;;2.10;99.90;;;;;;5077449;28;20557;-47
2021/12/25 11:43:42;;;;;;;9.00;8.03;;;2.10;99.90;;;;;;5112267;28;20195;-48
2021/12/25 11:46:09;;;;;;;11.37;8.93;;;2.10;99.90;;;;;;5078383;28;20175;-47
2021/12/25 11:48:40;;;;;;;11.37;9.90;;;2.10;99.90;;;;;;5078384;28;20181;-48
2021/12/25 11:51:07;;;;;;;8.30;6.97;;;2.10;99.90;;;;;;5078386;28;20183;-49
2021/12/25 11:56:25;;;;;;;8.80;7.37;;;2.10;99.90;;;;;;5076324;28;20522;-45
2021/12/25 11:58:56;;;;;;;9.73;7.57;;;2.00;99.90;;;;;;5059020;28;20170;-44
2021/12/25 12:01:42;;;;;;;11.40;8.97;;;2.10;99.90;;;;;;5076675;28;20174;-43
2021/12/25 12:04:11;;;;;;;16.23;9.97;;;2.10;99.90;;;;;;5058723;28;20595;-45
2021/12/25 12:06:45;;;;;;;18.87;11.40;;;2.10;99.90;;;;;;5058149;28;20182;-43
2021/12/25 12:09:15;;;;;;;16.13;9.80;;;2.10;99.90;;;;;;5057855;28;20189;-45
2021/12/25 12:11:44;;;;;;;9.67;7.07;;;2.20;99.90;;;;;;5075764;28;20206;-44
2021/12/25 12:14:26;;;;;;;10.80;7.27;;;2.10;99.90;;;;;;5076096;28;20218;-43
2021/12/25 12:16:53;;;;;;;7.40;6.40;;;2.10;99.90;;;;;;5058180;28;20159;-43
2021/12/25 12:19:31;;;;;;;7.07;6.30;;;2.10;99.90;;;;;;5057782;28;20179;-44
2021/12/25 12:25:23;;;;;;;11.97;6.83;;;2.10;99.90;;;;;;5075711;28;20584;-45
2021/12/25 12:27:55;;;;;;;9.47;6.13;;;2.10;99.90;;;;;;5058107;28;20183;-44
2021/12/25 12:30:42;;;;;;;8.43;6.53;;;2.10;99.90;;;;;;5075703;28;20240;-45
2021/12/25 12:33:19;;;;;;;10.20;6.13;;;2.10;99.90;;;;;;5075607;28;20300;-41
2021/12/25 12:35:47;;;;;;;7.30;5.90;;;2.10;99.90;;;;;;5057591;28;20198;-43
2021/12/25 12:38:36;;;;;;;6.50;5.57;;;2.00;99.90;;;;;;5057459;28;20211;-44
2021/12/25 12:41:31;;;;;;;6.90;5.20;;;2.00;99.90;;;;;;5075457;28;20160;-43
2021/12/25 12:44:08;;;;;;;5.47;4.93;;;1.90;99.90;;;;;;5075141;28;20300;-43
2021/12/25 12:47:07;;;;;;;7.27;5.13;;;1.90;99.90;;;;;;5075586;28;20205;-43
2021/12/25 12:49:53;;;;;;;7.33;5.73;;;1.80;99.90;;;;;;5063730;28;20191;-42
2021/12/25 12:52:25;;;;;;;6.40;5.70;;;1.80;99.90;;;;;;5075528;28;20553;-42
2021/12/25 12:54:55;;;;;;;6.37;4.97;;;1.80;99.90;;;;;;5074973;28;20207;-42
2021/12/25 12:57:25;;;;;;;7.97;4.93;;;1.80;99.90;;;;;;5075064;28;20182;-44
2021/12/25 12:59:54;;;;;;;6.20;5.20;;;1.80;99.90;;;;;;5075221;28;20180;-43
2021/12/25 13:02:23;;;;;;;7.60;4.70;;;1.80;99.90;;;;;;5057313;28;20201;-43
2021/12/25 13:04:57;;;;;;;5.83;5.17;;;1.80;99.90;;;;;;5075015;28;20559;-43
2021/12/25 13:07:23;;;;;;;5.60;4.80;;;1.80;99.90;;;;;;5056986;28;20174;-43
2021/12/25 13:10:37;;;;;;;6.83;4.97;;;1.80;99.90;;;;;;5075114;28;20687;-43
2021/12/25 13:13:10;;;;;;;6.30;5.00;;;1.80;99.90;;;;;;5069903;28;20210;-43
2021/12/25 13:15:36;;;;;;;6.17;5.23;;;1.80;99.90;;;;;;5075129;28;20191;-42
2021/12/25 13:18:06;;;;;;;5.53;4.73;;;1.80;99.90;;;;;;5074601;28;20179;-43
2021/12/25 13:20:52;;;;;;;5.23;4.67;;;1.80;99.90;;;;;;5074765;28;20217;-44
2021/12/25 13:23:21;;;;;;;8.93;5.23;;;1.80;99.90;;;;;;5057033;28;20700;-43
2021/12/25 13:26:02;;;;;;;7.33;5.07;;;1.80;99.90;;;;;;5074706;28;20650;-43
2021/12/25 13:28:31;;;;;;;6.33;4.50;;;1.80;99.90;;;;;;5074382;28;20650;-42
2021/12/25 13:31:00;;;;;;;7.03;5.50;;;1.80;99.90;;;;;;5053190;28;20187;-45
2021/12/25 13:33:29;;;;;;;7.77;4.80;;;1.80;99.90;;;;;;5072629;28;20264;-43
2021/12/25 13:35:59;;;;;;;6.23;5.03;;;1.90;99.90;;;;;;5074299;28;20194;-49
2021/12/25 13:38:25;;;;;;;7.60;5.20;;;1.90;99.90;;;;;;5074305;28;20187;-45
2021/12/25 13:40:53;;;;;;;14.67;7.20;;;1.90;99.90;;;;;;5074886;28;20317;-44
2021/12/25 13:43:18;;;;;;;13.10;6.30;;;1.90;99.90;;;;;;5056250;28;20297;-45
2021/12/25 13:45:44;;;;;;;7.00;5.53;;;2.00;99.90;;;;;;5074525;28;20280;-45
2021/12/25 13:48:10;;;;;;;6.83;5.03;;;2.00;99.90;;;;;;5074166;28;20175;-44
2021/12/25 13:50:37;;;;;;;8.03;5.87;;;2.00;99.90;;;;;;5074092;28;20183;-44
2021/12/25 13:53:16;;;;;;;6.53;5.27;;;2.00;99.90;;;;;;5074431;28;20214;-45
2021/12/25 13:56:22;;;;;;;6.20;4.57;;;2.00;99.90;;;;;;5072985;28;20754;-44
2021/12/25 13:58:49;;;;;;;6.83;4.43;;;2.00;99.90;;;;;;5068212;28;20183;-45
2021/12/25 14:01:56;;;;;;;9.43;4.60;;;1.90;99.90;;;;;;5056732;28;20194;-45
2021/12/25 14:04:56;;;;;;;7.43;5.00;;;1.90;99.90;;;;;;5051265;28;20558;-45
2021/12/25 14:07:34;;;;;;;6.17;4.83;;;2.00;99.90;;;;;;5072040;28;20586;-45
2021/12/25 14:10:28;;;;;;;5.57;4.77;;;1.90;99.90;;;;;;5041643;28;20166;-45
2021/12/25 14:13:25;;;;;;;6.73;5.33;;;1.90;99.90;;;;;;5059251;28;20212;-43
2021/12/25 14:16:14;;;;;;;6.80;4.90;;;1.90;99.90;;;;;;5050275;28;20190;-44
2021/12/25 14:39:29;;;;;;;6.47;4.37;;;2.00;99.90;;;;;;5075682;28;20608;-48
2021/12/25 14:42:42;;;;;;;4.63;4.00;;;2.00;99.90;;;;;;5075268;28;20199;-49
2021/12/25 14:59:46;;;;;;;4.60;4.10;;;2.00;99.90;;;;;;5078320;28;20198;-48
2021/12/25 15:06:16;;;;;;;5.93;5.20;;;1.90;99.90;;;;;;5075373;28;20227;-48
2021/12/25 15:08:42;;;;;;;5.93;5.33;;;2.00;99.90;;;;;;5076398;28;20626;-48